Time;durP1;ratioP1;P1;durP2;ratioP2;P2;SDS_P1;SDS_P2;PMS_P1;PMS_P2;Temp;Humidity;BMP_temperature;BMP_pressure;BME280_temperature;BME280_humidity;BME280_pressure;Samples;Min_cycle;Max_cycle;Signal;HPM_P1;HPM_P2
2024/01/26 00:01:08;;;;;;;1.00;0.88;;;;;;;;;;2071901;28;20045;-80
2024/01/26 00:02:26;;;;;;;1.73;0.98;;;;;;;;;;2067178;28;20034;-80
2024/01/26 00:03:45;;;;;;;0.70;0.70;;;;;;;;;;2074359;28;20045;-80
2024/01/26 00:05:06;;;;;;;1.13;0.80;;;;;;;;;;2076795;28;20171;-80
2024/01/26 00:06:25;;;;;;;2.45;0.70;;;;;;;;;;2076773;28;20026;-80
2024/01/26 00:07:44;;;;;;;1.30;0.80;;;;;;;;;;2067690;28;20369;-78
2024/01/26 00:09:12;;;;;;;0.80;0.80;;;;;;;;;;2065104;28;20043;-79
2024/01/26 00:10:31;;;;;;;0.82;0.82;;;;;;;;;;2075820;28;20034;-79
2024/01/26 00:11:50;;;;;;;2.20;0.75;;;;;;;;;;2076821;28;20589;-80
2024/01/26 00:13:10;;;;;;;2.25;0.80;;;;;;;;;;2075495;28;20029;-79
2024/01/26 00:14:29;;;;;;;0.60;0.60;;;;;;;;;;2067024;28;20022;-79
2024/01/26 00:15:49;;;;;;;2.45;1.02;;;;;;;;;;2072612;28;20505;-79
2024/01/26 00:17:08;;;;;;;1.00;1.00;;;;;;;;;;2066635;28;20416;-79
2024/01/26 00:18:27;;;;;;;1.08;0.90;;;;;;;;;;2069755;28;20214;-79
2024/01/26 00:19:46;;;;;;;1.75;0.88;;;;;;;;;;2076166;28;20496;-78
2024/01/26 00:21:05;;;;;;;2.08;0.70;;;;;;;;;;2068163;28;20100;-78
2024/01/26 00:22:24;;;;;;;0.98;0.98;;;;;;;;;;2072660;28;20030;-79
2024/01/26 00:23:43;;;;;;;0.93;0.70;;;;;;;;;;2067530;28;20121;-78
2024/01/26 00:25:01;;;;;;;1.08;0.90;;;;;;;;;;2072202;28;20030;-79
2024/01/26 00:26:20;;;;;;;1.20;1.10;;;;;;;;;;2075388;28;20041;-79
2024/01/26 00:27:39;;;;;;;0.90;0.90;;;;;;;;;;2076571;28;20119;-79
2024/01/26 00:28:58;;;;;;;0.88;0.88;;;;;;;;;;2074459;28;20034;-78
2024/01/26 00:30:17;;;;;;;2.53;0.85;;;;;;;;;;2066640;28;20409;-78
2024/01/26 00:31:37;;;;;;;0.90;0.80;;;;;;;;;;2073295;28;20030;-78
2024/01/26 00:32:56;;;;;;;0.80;0.80;;;;;;;;;;2076336;28;20030;-78
2024/01/26 00:34:15;;;;;;;2.25;1.23;;;;;;;;;;2076263;28;20025;-78
2024/01/26 00:35:34;;;;;;;1.10;1.00;;;;;;;;;;2076076;28;20025;-79
2024/01/26 00:36:53;;;;;;;1.10;1.00;;;;;;;;;;2075146;28;20038;-79
2024/01/26 00:38:14;;;;;;;2.00;0.98;;;;;;;;;;2067975;28;20038;-75
2024/01/26 00:39:33;;;;;;;1.02;1.02;;;;;;;;;;2071203;28;20487;-74
2024/01/26 00:40:52;;;;;;;1.08;1.08;;;;;;;;;;2075760;28;20105;-77
2024/01/26 00:42:11;;;;;;;0.90;0.90;;;;;;;;;;2068168;28;20042;-74
2024/01/26 00:43:30;;;;;;;1.45;1.13;;;;;;;;;;2071752;28;20511;-74
2024/01/26 00:44:48;;;;;;;2.08;1.48;;;;;;;;;;2077215;28;20116;-73
2024/01/26 00:46:08;;;;;;;1.63;1.05;;;;;;;;;;2072465;28;20033;-76
2024/01/26 00:47:27;;;;;;;1.20;1.10;;;;;;;;;;2076060;28;20594;-74
2024/01/26 00:48:46;;;;;;;1.73;1.13;;;;;;;;;;2076020;28;20049;-74
2024/01/26 00:50:05;;;;;;;1.35;1.25;;;;;;;;;;2077104;28;20038;-74
2024/01/26 00:51:24;;;;;;;1.30;1.30;;;;;;;;;;2076078;28;20033;-74
2024/01/26 00:52:43;;;;;;;1.25;1.17;;;;;;;;;;2076268;28;20034;-75
2024/01/26 00:54:02;;;;;;;2.97;1.20;;;;;;;;;;2067198;28;20039;-75
2024/01/26 00:55:22;;;;;;;1.90;1.35;;;;;;;;;;2071848;28;20061;-75
2024/01/26 00:56:41;;;;;;;1.50;1.40;;;;;;;;;;2074353;28;20029;-75
2024/01/26 00:58:00;;;;;;;1.17;1.17;;;;;;;;;;2076385;28;20038;-75
2024/01/26 00:59:19;;;;;;;1.40;1.30;;;;;;;;;;2075913;28;20042;-75
2024/01/26 01:00:38;;;;;;;1.48;1.38;;;;;;;;;;2075533;28;20038;-75
2024/01/26 01:02:00;;;;;;;2.88;1.40;;;;;;;;;;2066606;28;20030;-75
2024/01/26 01:03:19;;;;;;;1.27;1.27;;;;;;;;;;2072194;28;20030;-75
2024/01/26 01:04:38;;;;;;;2.53;1.45;;;;;;;;;;2077400;28;20029;-75
2024/01/26 01:05:57;;;;;;;1.50;1.40;;;;;;;;;;2075568;28;20026;-75
2024/01/26 01:07:16;;;;;;;1.45;1.35;;;;;;;;;;2075075;28;20034;-74
2024/01/26 01:08:35;;;;;;;1.65;1.55;;;;;;;;;;2075324;28;20026;-74
2024/01/26 01:09:54;;;;;;;1.60;1.50;;;;;;;;;;2066325;28;20492;-74
2024/01/26 01:11:13;;;;;;;2.42;1.60;;;;;;;;;;2068199;28;20400;-75
2024/01/26 01:12:34;;;;;;;1.55;1.45;;;;;;;;;;2072741;28;20026;-75
2024/01/26 01:13:53;;;;;;;1.58;1.48;;;;;;;;;;2076018;28;20061;-74
2024/01/26 01:15:12;;;;;;;1.70;1.60;;;;;;;;;;2074328;28;20396;-75
2024/01/26 01:16:32;;;;;;;2.80;1.48;;;;;;;;;;2066579;28;20030;-74
2024/01/26 01:17:51;;;;;;;1.75;1.65;;;;;;;;;;2063916;28;20069;-74
2024/01/26 01:19:10;;;;;;;1.75;1.65;;;;;;;;;;2067826;28;20500;-74
2024/01/26 01:20:29;;;;;;;5.35;1.75;;;;;;;;;;2074415;28;20340;-74
2024/01/26 01:21:48;;;;;;;2.33;1.67;;;;;;;;;;2066924;28;20038;-74
2024/01/26 01:23:08;;;;;;;3.63;1.67;;;;;;;;;;2071387;28;20447;-75
2024/01/26 01:24:27;;;;;;;2.65;1.80;;;;;;;;;;2066147;28;20416;-75
2024/01/26 01:25:46;;;;;;;1.45;1.42;;;;;;;;;;2066121;28;20038;-76
2024/01/26 01:27:05;;;;;;;1.40;1.30;;;;;;;;;;2072219;28;20022;-75
2024/01/26 01:28:34;;;;;;;1.50;1.40;;;;;;;;;;2067170;28;20030;-75
2024/01/26 01:29:53;;;;;;;1.35;1.35;;;;;;;;;;2074271;28;20038;-76
2024/01/26 01:31:12;;;;;;;1.17;1.17;;;;;;;;;;2066339;28;20030;-75
2024/01/26 01:32:31;;;;;;;1.50;1.40;;;;;;;;;;2071533;28;20477;-75
2024/01/26 01:33:51;;;;;;;1.00;1.00;;;;;;;;;;2064588;28;20038;-74
2024/01/26 01:35:10;;;;;;;1.40;1.30;;;;;;;;;;2064371;28;20113;-74
2024/01/26 01:36:29;;;;;;;1.98;1.30;;;;;;;;;;2070545;28;20401;-76
2024/01/26 01:37:48;;;;;;;1.27;1.17;;;;;;;;;;2067319;28;20108;-76
2024/01/26 01:39:07;;;;;;;3.13;1.20;;;;;;;;;;2070565;28;20108;-74
2024/01/26 01:40:27;;;;;;;1.40;1.30;;;;;;;;;;2068275;28;20038;-73
2024/01/26 01:41:47;;;;;;;1.60;1.33;;;;;;;;;;2064010;28;20069;-74
2024/01/26 01:43:06;;;;;;;1.23;1.23;;;;;;;;;;2073060;28;20030;-75
2024/01/26 01:44:25;;;;;;;1.50;1.40;;;;;;;;;;2072157;28;20065;-74
2024/01/26 01:45:44;;;;;;;1.85;1.75;;;;;;;;;;2075499;28;20033;-74
2024/01/26 01:47:04;;;;;;;1.30;1.30;;;;;;;;;;2066314;28;20054;-75
2024/01/26 01:48:23;;;;;;;1.60;1.50;;;;;;;;;;2064228;28;20042;-77
2024/01/26 01:49:42;;;;;;;1.38;1.27;;;;;;;;;;2072523;28;20501;-77
2024/01/26 01:51:02;;;;;;;1.88;1.77;;;;;;;;;;2076297;28;20551;-76
2024/01/26 01:52:23;;;;;;;1.50;1.40;;;;;;;;;;2067252;28;20508;-78
2024/01/26 01:53:42;;;;;;;1.65;1.55;;;;;;;;;;2071803;28;20029;-78
2024/01/26 01:55:01;;;;;;;2.67;1.85;;;;;;;;;;2066691;28;20030;-77
2024/01/26 01:56:23;;;;;;;1.48;1.25;;;;;;;;;;2071978;28;20018;-77
2024/01/26 01:57:44;;;;;;;1.40;1.30;;;;;;;;;;2076288;28;20516;-78
2024/01/26 01:59:03;;;;;;;1.40;1.30;;;;;;;;;;2075036;28;20042;-76
2024/01/26 02:00:23;;;;;;;1.80;1.25;;;;;;;;;;2065568;28;20086;-76
2024/01/26 02:01:42;;;;;;;1.45;1.35;;;;;;;;;;2070370;28;20034;-78
2024/01/26 02:03:03;;;;;;;1.30;1.20;;;;;;;;;;2066770;28;20065;-77
2024/01/26 02:04:22;;;;;;;1.85;1.25;;;;;;;;;;2072807;28;20439;-76
2024/01/26 02:05:41;;;;;;;1.40;1.30;;;;;;;;;;2074172;28;20496;-77
2024/01/26 02:07:00;;;;;;;2.28;1.70;;;;;;;;;;2065287;28;20529;-77
2024/01/26 02:08:19;;;;;;;1.33;1.23;;;;;;;;;;2072241;28;20037;-77
2024/01/26 02:09:38;;;;;;;1.40;1.30;;;;;;;;;;2075670;28;20030;-77
2024/01/26 02:10:57;;;;;;;1.55;1.45;;;;;;;;;;2075696;28;20037;-76
2024/01/26 02:12:16;;;;;;;1.30;1.30;;;;;;;;;;2077195;28;20385;-77
2024/01/26 02:13:35;;;;;;;1.60;1.35;;;;;;;;;;2077125;28;20489;-78
2024/01/26 02:14:54;;;;;;;2.75;1.50;;;;;;;;;;2077271;28;20481;-77
2024/01/26 02:16:13;;;;;;;1.45;1.35;;;;;;;;;;2077556;28;20041;-78
2024/01/26 02:17:32;;;;;;;1.73;1.63;;;;;;;;;;2076425;28;20397;-78
2024/01/26 02:18:51;;;;;;;1.75;1.65;;;;;;;;;;2075906;28;20054;-77
2024/01/26 02:20:10;;;;;;;1.98;1.67;;;;;;;;;;2069548;28;20022;-77
2024/01/26 02:21:31;;;;;;;2.20;1.70;;;;;;;;;;2073198;28;20022;-77
2024/01/26 02:22:50;;;;;;;2.28;2.13;;;;;;;;;;2077038;28;20029;-77
2024/01/26 02:24:12;;;;;;;1.77;1.67;;;;;;;;;;2075852;28;20034;-77
2024/01/26 02:25:31;;;;;;;1.77;1.67;;;;;;;;;;2076354;28;20025;-78
2024/01/26 02:26:52;;;;;;;2.10;2.00;;;;;;;;;;2075374;28;20268;-75
2024/01/26 02:28:11;;;;;;;3.90;1.60;;;;;;;;;;2076580;28;20026;-77
2024/01/26 02:29:31;;;;;;;1.98;1.77;;;;;;;;;;2076029;28;20030;-78
2024/01/26 02:30:50;;;;;;;2.20;2.00;;;;;;;;;;2067913;28;20417;-76
2024/01/26 02:32:10;;;;;;;1.77;1.67;;;;;;;;;;2068494;28;20038;-76
2024/01/26 02:33:29;;;;;;;2.13;1.85;;;;;;;;;;2066043;28;20331;-77
2024/01/26 02:34:48;;;;;;;2.92;2.00;;;;;;;;;;2072795;28;20517;-77
2024/01/26 02:36:07;;;;;;;3.40;2.53;;;;;;;;;;2077092;28;20046;-78
2024/01/26 02:37:26;;;;;;;3.00;2.17;;;;;;;;;;2076725;28;20030;-77
2024/01/26 02:38:45;;;;;;;3.05;2.85;;;;;;;;;;2076792;28;20026;-77
2024/01/26 02:40:05;;;;;;;4.07;3.28;;;;;;;;;;2075178;28;20030;-76
2024/01/26 02:41:24;;;;;;;3.75;3.20;;;;;;;;;;2076401;28;20061;-78
2024/01/26 02:42:43;;;;;;;4.43;4.03;;;;;;;;;;2078188;28;20504;-77
2024/01/26 02:44:02;;;;;;;4.40;4.10;;;;;;;;;;2075773;28;20037;-77
2024/01/26 02:45:22;;;;;;;5.32;4.93;;;;;;;;;;2068343;28;20509;-78
2024/01/26 02:46:45;;;;;;;8.38;6.55;;;;;;;;;;2073308;28;20046;-78
2024/01/26 02:48:04;;;;;;;7.57;6.47;;;;;;;;;;2077428;28;20460;-76
2024/01/26 02:49:23;;;;;;;8.35;7.55;;;;;;;;;;2076171;28;20492;-77
2024/01/26 02:50:42;;;;;;;8.20;7.40;;;;;;;;;;2076083;28;20042;-78
2024/01/26 02:52:01;;;;;;;7.80;6.80;;;;;;;;;;2077680;28;20438;-77
2024/01/26 02:53:20;;;;;;;6.40;5.90;;;;;;;;;;2067532;28;20034;-78
2024/01/26 02:54:38;;;;;;;6.07;5.57;;;;;;;;;;2071863;28;20045;-78
2024/01/26 02:55:57;;;;;;;12.32;9.40;;;;;;;;;;2076851;28;20018;-77
2024/01/26 02:57:16;;;;;;;13.52;8.85;;;;;;;;;;2065679;28;20023;-77
2024/01/26 02:58:36;;;;;;;13.73;8.98;;;;;;;;;;2072398;28;20034;-79
2024/01/26 02:59:55;;;;;;;13.40;10.20;;;;;;;;;;2076066;28;20042;-79
2024/01/26 03:01:14;;;;;;;13.18;10.30;;;;;;;;;;2066147;28;20038;-79
2024/01/26 03:02:33;;;;;;;11.50;9.70;;;;;;;;;;2063917;28;20030;-79
2024/01/26 03:03:52;;;;;;;13.52;10.40;;;;;;;;;;2073819;28;20034;-79
2024/01/26 03:05:11;;;;;;;17.13;11.27;;;;;;;;;;2072048;28;20029;-79
2024/01/26 03:06:30;;;;;;;14.77;9.70;;;;;;;;;;2076840;28;20042;-79
2024/01/26 03:07:49;;;;;;;13.30;10.25;;;;;;;;;;2076595;28;20064;-78
2024/01/26 03:09:08;;;;;;;16.38;11.25;;;;;;;;;;2074367;28;20372;-79
2024/01/26 03:10:27;;;;;;;15.55;10.73;;;;;;;;;;2076792;28;20033;-78
2024/01/26 03:11:46;;;;;;;16.40;11.45;;;;;;;;;;2076609;28;20037;-78
2024/01/26 03:13:05;;;;;;;18.08;11.52;;;;;;;;;;2077142;28;20030;-77
2024/01/26 03:14:24;;;;;;;16.00;11.63;;;;;;;;;;2068531;28;20062;-77
2024/01/26 03:15:43;;;;;;;16.73;11.68;;;;;;;;;;2064192;28;20110;-78
2024/01/26 03:17:02;;;;;;;14.88;11.25;;;;;;;;;;2064128;28;20031;-78
2024/01/26 03:18:21;;;;;;;17.15;11.93;;;;;;;;;;2074241;28;20116;-78
2024/01/26 03:19:40;;;;;;;13.30;10.45;;;;;;;;;;2076073;28;20030;-79
2024/01/26 03:21:00;;;;;;;14.52;10.75;;;;;;;;;;2075769;28;20033;-78
2024/01/26 03:22:19;;;;;;;14.77;11.02;;;;;;;;;;2077554;28;20108;-77
2024/01/26 03:23:38;;;;;;;14.93;10.27;;;;;;;;;;2068136;28;20033;-78
2024/01/26 03:24:57;;;;;;;15.45;10.90;;;;;;;;;;2072528;28;20073;-78
2024/01/26 03:26:16;;;;;;;15.77;11.75;;;;;;;;;;2077166;28;20064;-78
2024/01/26 03:27:35;;;;;;;15.82;11.13;;;;;;;;;;2076087;28;20520;-79
2024/01/26 03:28:54;;;;;;;14.95;11.43;;;;;;;;;;2076158;28;20026;-79
2024/01/26 03:30:13;;;;;;;17.90;11.63;;;;;;;;;;2077093;28;20026;-77
2024/01/26 03:31:32;;;;;;;16.05;11.70;;;;;;;;;;2076221;28;20021;-78
2024/01/26 03:32:51;;;;;;;13.38;9.73;;;;;;;;;;2074179;28;20508;-78
2024/01/26 03:34:10;;;;;;;16.50;11.23;;;;;;;;;;2075829;28;20069;-77
2024/01/26 03:35:30;;;;;;;14.90;11.10;;;;;;;;;;2076521;28;20029;-78
2024/01/26 03:36:49;;;;;;;14.55;9.88;;;;;;;;;;2075821;28;20113;-78
2024/01/26 03:38:08;;;;;;;11.65;9.57;;;;;;;;;;2073986;28;20026;-79
2024/01/26 03:39:27;;;;;;;13.30;9.27;;;;;;;;;;2065511;28;20026;-77
2024/01/26 03:40:46;;;;;;;14.15;10.73;;;;;;;;;;2073853;28;20030;-78
2024/01/26 03:42:10;;;;;;;14.23;10.50;;;;;;;;;;2076904;28;20033;-79
2024/01/26 03:43:29;;;;;;;13.73;10.05;;;;;;;;;;2075497;28;20054;-79
2024/01/26 03:44:49;;;;;;;16.13;10.65;;;;;;;;;;2068323;28;20547;-78
2024/01/26 03:46:08;;;;;;;15.80;11.05;;;;;;;;;;2069387;28;20408;-77
2024/01/26 03:47:27;;;;;;;15.50;11.32;;;;;;;;;;2066928;28;20029;-78
2024/01/26 03:48:46;;;;;;;14.85;11.10;;;;;;;;;;2064763;28;20065;-78
2024/01/26 03:50:06;;;;;;;15.77;10.60;;;;;;;;;;2072079;28;20060;-78
2024/01/26 03:51:25;;;;;;;15.50;10.88;;;;;;;;;;2068427;28;20114;-78
2024/01/26 03:52:44;;;;;;;14.70;11.25;;;;;;;;;;2073200;28;20042;-78
2024/01/26 03:54:04;;;;;;;15.65;11.43;;;;;;;;;;2075618;28;20026;-78
2024/01/26 03:55:23;;;;;;;15.63;11.23;;;;;;;;;;2066309;28;20038;-77
2024/01/26 03:56:43;;;;;;;17.17;11.80;;;;;;;;;;2073679;28;20441;-77
2024/01/26 03:58:02;;;;;;;15.70;11.63;;;;;;;;;;2067211;28;20042;-78
2024/01/26 03:59:20;;;;;;;15.80;11.60;;;;;;;;;;2072467;28;20496;-77
2024/01/26 04:00:40;;;;;;;15.98;11.30;;;;;;;;;;2076299;28;20052;-78
2024/01/26 04:01:59;;;;;;;13.90;10.63;;;;;;;;;;2068662;28;20038;-78
2024/01/26 04:03:18;;;;;;;14.20;10.55;;;;;;;;;;2065219;28;20401;-79
2024/01/26 04:04:37;;;;;;;16.23;11.10;;;;;;;;;;2072103;28;20400;-78
2024/01/26 04:05:56;;;;;;;16.88;10.35;;;;;;;;;;2074993;28;20034;-78
2024/01/26 04:07:15;;;;;;;14.35;10.38;;;;;;;;;;2075870;28;20025;-79
2024/01/26 04:08:34;;;;;;;15.02;10.95;;;;;;;;;;2077276;28;20038;-75
2024/01/26 04:09:54;;;;;;;15.60;10.60;;;;;;;;;;2074293;28;20100;-76
2024/01/26 04:11:12;;;;;;;14.68;10.48;;;;;;;;;;2067448;28;20030;-74
2024/01/26 04:12:33;;;;;;;15.48;9.88;;;;;;;;;;2072728;28;20038;-76
2024/01/26 04:13:53;;;;;;;16.75;10.05;;;;;;;;;;2075681;28;20108;-74
2024/01/26 04:15:12;;;;;;;14.85;10.52;;;;;;;;;;2076542;28;20030;-74
2024/01/26 04:16:31;;;;;;;12.60;8.93;;;;;;;;;;2068261;28;20030;-75
2024/01/26 04:17:50;;;;;;;12.93;9.32;;;;;;;;;;2064516;28;20038;-75
2024/01/26 04:19:09;;;;;;;11.57;8.50;;;;;;;;;;2065055;28;20405;-75
2024/01/26 04:20:28;;;;;;;9.38;7.78;;;;;;;;;;2073353;28;20038;-76
2024/01/26 04:21:49;;;;;;;8.35;7.30;;;;;;;;;;2074741;28;20038;-75
2024/01/26 04:23:09;;;;;;;13.60;8.50;;;;;;;;;;2072946;28;20034;-75
2024/01/26 04:24:28;;;;;;;10.10;7.97;;;;;;;;;;2075482;28;20042;-74
2024/01/26 04:25:46;;;;;;;9.52;7.93;;;;;;;;;;2075833;28;20042;-75
2024/01/26 04:27:06;;;;;;;9.27;8.10;;;;;;;;;;2077191;28;20029;-74
2024/01/26 04:28:24;;;;;;;10.73;8.57;;;;;;;;;;2068324;28;20026;-75
2024/01/26 04:29:45;;;;;;;11.75;9.18;;;;;;;;;;2064478;28;20035;-74
2024/01/26 04:31:08;;;;;;;11.25;8.77;;;;;;;;;;2071956;28;20411;-75
2024/01/26 04:32:26;;;;;;;;;;;;;;;;;;2075159;28;20152;-75
2024/01/26 04:33:46;;;;;;;11.50;8.43;;;;;;;;;;2068211;28;19913;-75
2024/01/26 04:35:05;;;;;;;11.85;8.85;;;;;;;;;;2072165;28;20061;-76
2024/01/26 04:36:23;;;;;;;10.82;9.05;;;;;;;;;;2075596;28;20049;-73
2024/01/26 04:37:44;;;;;;;11.82;9.23;;;;;;;;;;2065799;28;20042;-75
2024/01/26 04:39:03;;;;;;;11.30;8.90;;;;;;;;;;2065470;28;20492;-74
2024/01/26 04:40:22;;;;;;;12.10;8.80;;;;;;;;;;2072899;28;20038;-75
2024/01/26 04:41:41;;;;;;;10.57;9.00;;;;;;;;;;2075329;28;20030;-74
2024/01/26 04:43:01;;;;;;;12.30;9.48;;;;;;;;;;2066845;28;20062;-74
2024/01/26 04:44:19;;;;;;;13.95;10.15;;;;;;;;;;2063973;28;20062;-75
2024/01/26 04:45:39;;;;;;;11.30;8.88;;;;;;;;;;2063875;28;20030;-75
2024/01/26 04:46:57;;;;;;;12.80;9.77;;;;;;;;;;2071056;28;20033;-74
2024/01/26 04:48:16;;;;;;;14.00;9.90;;;;;;;;;;2073176;28;20033;-76
2024/01/26 04:49:35;;;;;;;13.00;9.70;;;;;;;;;;2076174;28;20021;-74
2024/01/26 04:50:54;;;;;;;12.05;8.93;;;;;;;;;;2077036;28;20168;-78
2024/01/26 04:52:14;;;;;;;14.02;9.82;;;;;;;;;;2066668;28;20030;-74
2024/01/26 04:53:33;;;;;;;11.63;8.60;;;;;;;;;;2071714;28;20031;-75
2024/01/26 04:54:52;;;;;;;13.25;9.32;;;;;;;;;;2068048;28;20037;-74
2024/01/26 04:56:11;;;;;;;12.27;9.20;;;;;;;;;;2072779;28;20026;-74
2024/01/26 04:57:30;;;;;;;8.43;7.40;;;;;;;;;;2076110;28;20033;-76
2024/01/26 04:58:50;;;;;;;10.40;8.25;;;;;;;;;;2076941;28;20033;-75
2024/01/26 05:00:10;;;;;;;10.05;8.07;;;;;;;;;;2067408;28;20449;-75
2024/01/26 05:01:29;;;;;;;11.48;8.43;;;;;;;;;;2072752;28;20025;-75
2024/01/26 05:02:49;;;;;;;7.68;6.97;;;;;;;;;;2066539;28;20026;-75
2024/01/26 05:04:07;;;;;;;7.65;6.85;;;;;;;;;;2064533;28;20037;-74
2024/01/26 05:05:29;;;;;;;8.65;6.95;;;;;;;;;;2063435;28;20231;-74
2024/01/26 05:06:48;;;;;;;7.63;6.93;;;;;;;;;;2063142;28;20038;-75
2024/01/26 05:08:07;;;;;;;7.93;7.18;;;;;;;;;;2071776;28;20603;-74
2024/01/26 05:09:26;;;;;;;8.30;7.50;;;;;;;;;;2073937;28;20116;-75
2024/01/26 05:10:45;;;;;;;8.90;7.85;;;;;;;;;;2066664;28;20034;-75
2024/01/26 05:12:04;;;;;;;7.53;6.82;;;;;;;;;;2063303;28;20034;-74
2024/01/26 05:13:23;;;;;;;8.63;7.75;;;;;;;;;;2071784;28;20026;-75
2024/01/26 05:14:43;;;;;;;8.50;7.80;;;;;;;;;;2075110;28;20579;-75
2024/01/26 05:16:01;;;;;;;8.55;7.75;;;;;;;;;;2075102;28;20126;-75
2024/01/26 05:17:20;;;;;;;10.25;8.27;;;;;;;;;;2074266;28;20088;-77
2024/01/26 05:18:39;;;;;;;8.27;7.47;;;;;;;;;;2066716;28;20548;-81
2024/01/26 05:19:58;;;;;;;8.15;7.35;;;;;;;;;;2070894;28;20068;-81
2024/01/26 05:21:17;;;;;;;8.10;7.30;;;;;;;;;;2073389;28;20701;-76
2024/01/26 05:22:36;;;;;;;7.72;6.93;;;;;;;;;;2072463;28;20427;-81
2024/01/26 05:23:55;;;;;;;6.90;6.30;;;;;;;;;;2074750;28;20049;-80
2024/01/26 05:25:15;;;;;;;7.07;6.47;;;;;;;;;;2075879;28;20516;-80
2024/01/26 05:26:37;;;;;;;6.53;5.93;;;;;;;;;;2075304;28;20042;-78
2024/01/26 05:27:56;;;;;;;4.65;4.25;;;;;;;;;;2061320;28;20125;-77
2024/01/26 05:29:16;;;;;;;7.80;6.53;;;;;;;;;;2067252;28;20030;-79
2024/01/26 05:30:35;;;;;;;5.85;5.45;;;;;;;;;;2074438;28;20029;-77
2024/01/26 05:31:54;;;;;;;6.50;5.93;;;;;;;;;;2072363;28;20030;-78
2024/01/26 05:33:13;;;;;;;6.03;5.53;;;;;;;;;;2074751;28;20030;-79
2024/01/26 05:34:32;;;;;;;5.05;4.75;;;;;;;;;;2064994;28;20034;-81
2024/01/26 05:35:55;;;;;;;5.00;4.55;;;;;;;;;;2071435;28;20033;-79
2024/01/26 05:37:14;;;;;;;5.18;4.68;;;;;;;;;;2073235;28;20029;-79
2024/01/26 05:38:33;;;;;;;5.60;5.13;;;;;;;;;;2065206;28;20157;-78
2024/01/26 05:39:52;;;;;;;5.35;4.85;;;;;;;;;;2069862;28;20021;-80
2024/01/26 05:41:12;;;;;;;5.35;4.80;;;;;;;;;;2073419;28;20424;-82
2024/01/26 05:42:31;;;;;;;5.10;4.80;;;;;;;;;;2075331;28;20030;-81
2024/01/26 05:43:50;;;;;;;4.72;4.43;;;;;;;;;;2074841;28;20069;-80
2024/01/26 05:45:09;;;;;;;5.15;4.75;;;;;;;;;;2074352;28;20030;-80
2024/01/26 05:46:28;;;;;;;5.47;4.90;;;;;;;;;;2066128;28;20038;-80
2024/01/26 05:47:48;;;;;;;4.50;4.20;;;;;;;;;;2071979;28;20484;-81
2024/01/26 05:49:07;;;;;;;4.65;4.25;;;;;;;;;;2065726;28;20061;-80
2024/01/26 05:50:26;;;;;;;4.85;4.55;;;;;;;;;;2067664;28;20026;-78
2024/01/26 05:51:45;;;;;;;7.03;4.47;;;;;;;;;;2073531;28;20038;-82
2024/01/26 05:53:04;;;;;;;4.55;4.35;;;;;;;;;;2076195;28;20034;-82
2024/01/26 05:54:23;;;;;;;4.88;4.57;;;;;;;;;;2074779;28;20022;-78
2024/01/26 05:55:42;;;;;;;4.78;4.53;;;;;;;;;;2067183;28;20039;-79
2024/01/26 05:57:01;;;;;;;4.85;4.57;;;;;;;;;;2070391;28;20062;-78
2024/01/26 05:58:20;;;;;;;5.38;5.07;;;;;;;;;;2075516;28;20038;-76
2024/01/26 05:59:40;;;;;;;5.65;5.32;;;;;;;;;;2074504;28;20065;-77
2024/01/26 06:00:58;;;;;;;5.63;5.22;;;;;;;;;;2062294;28;20070;-78
2024/01/26 06:02:17;;;;;;;6.25;5.50;;;;;;;;;;2070943;28;20037;-80
2024/01/26 06:03:37;;;;;;;5.68;5.38;;;;;;;;;;2075763;28;20038;-77
2024/01/26 06:04:56;;;;;;;5.15;4.75;;;;;;;;;;2073666;28;20073;-76
2024/01/26 06:06:15;;;;;;;5.63;5.22;;;;;;;;;;2074361;28;20065;-79
2024/01/26 06:07:35;;;;;;;5.60;5.10;;;;;;;;;;2065946;28;20026;-74
2024/01/26 06:08:54;;;;;;;5.35;5.00;;;;;;;;;;2071610;28;20117;-74
2024/01/26 06:10:12;;;;;;;5.43;5.07;;;;;;;;;;2075530;28;20126;-75
2024/01/26 06:11:33;;;;;;;6.40;6.00;;;;;;;;;;2074588;28;20038;-76
2024/01/26 06:12:51;;;;;;;6.25;5.85;;;;;;;;;;2061777;28;20484;-77
2024/01/26 06:14:11;;;;;;;6.20;5.68;;;;;;;;;;2071141;28;20027;-78
2024/01/26 06:15:29;;;;;;;6.32;5.82;;;;;;;;;;2074961;28;20285;-78
2024/01/26 06:16:51;;;;;;;6.05;5.53;;;;;;;;;;2073942;28;20033;-78
2024/01/26 06:18:10;;;;;;;6.68;6.07;;;;;;;;;;2074730;28;20034;-78
2024/01/26 06:19:29;;;;;;;6.63;6.10;;;;;;;;;;2074418;28;20239;-78
2024/01/26 06:20:48;;;;;;;5.38;4.85;;;;;;;;;;2074894;28;20064;-77
2024/01/26 06:22:07;;;;;;;4.78;4.47;;;;;;;;;;2074283;28;20034;-76
2024/01/26 06:23:27;;;;;;;5.35;4.85;;;;;;;;;;2075670;28;20120;-76
2024/01/26 06:24:46;;;;;;;4.63;4.32;;;;;;;;;;2073181;28;20581;-78
2024/01/26 06:26:05;;;;;;;5.00;4.60;;;;;;;;;;2065474;28;20038;-78
2024/01/26 06:27:24;;;;;;;5.80;4.25;;;;;;;;;;2060393;28;20030;-77
2024/01/26 06:28:43;;;;;;;5.18;4.05;;;;;;;;;;2069710;28;20073;-77
2024/01/26 06:30:03;;;;;;;3.95;3.70;;;;;;;;;;2072079;28;20025;-76
2024/01/26 06:31:26;;;;;;;4.80;3.90;;;;;;;;;;2064304;28;20030;-78
2024/01/26 06:32:45;;;;;;;4.10;3.75;;;;;;;;;;2066999;28;20057;-77
2024/01/26 06:34:03;;;;;;;3.42;3.05;;;;;;;;;;2064220;28;20026;-77
2024/01/26 06:35:23;;;;;;;3.65;3.38;;;;;;;;;;2070524;28;20034;-77
2024/01/26 06:36:42;;;;;;;4.07;3.88;;;;;;;;;;2070870;28;20105;-77
2024/01/26 06:38:01;;;;;;;4.07;3.78;;;;;;;;;;2073067;28;20034;-78
2024/01/26 06:39:20;;;;;;;4.60;4.30;;;;;;;;;;2071820;28;20400;-76
2024/01/26 06:40:39;;;;;;;5.38;4.32;;;;;;;;;;2073216;28;20049;-76
2024/01/26 06:41:58;;;;;;;4.00;3.80;;;;;;;;;;2074343;28;20038;-77
2024/01/26 06:43:19;;;;;;;3.88;3.67;;;;;;;;;;2073926;28;20026;-76
2024/01/26 06:44:38;;;;;;;3.83;3.63;;;;;;;;;;2073833;28;20400;-76
2024/01/26 06:45:57;;;;;;;3.35;3.15;;;;;;;;;;2073853;28;20050;-77
2024/01/26 06:47:16;;;;;;;4.00;3.63;;;;;;;;;;2072038;28;20045;-77
2024/01/26 06:48:35;;;;;;;3.88;3.03;;;;;;;;;;2062995;28;20085;-77
2024/01/26 06:49:54;;;;;;;5.88;2.90;;;;;;;;;;2061375;28;20058;-76
2024/01/26 06:51:12;;;;;;;4.82;2.95;;;;;;;;;;2069853;28;20034;-77
2024/01/26 06:52:32;;;;;;;3.58;3.25;;;;;;;;;;2073582;28;20037;-77
2024/01/26 06:53:51;;;;;;;3.03;2.70;;;;;;;;;;2073122;28;20037;-77
2024/01/26 06:55:10;;;;;;;3.50;3.30;;;;;;;;;;2073822;28;20069;-79
2024/01/26 06:56:29;;;;;;;3.63;3.42;;;;;;;;;;2073851;28;20497;-76
2024/01/26 06:57:48;;;;;;;3.53;3.33;;;;;;;;;;2076079;28;20488;-78
2024/01/26 06:59:07;;;;;;;4.20;3.20;;;;;;;;;;2066702;28;20026;-78
2024/01/26 07:00:27;;;;;;;3.88;3.50;;;;;;;;;;2066442;28;20030;-76
2024/01/26 07:01:46;;;;;;;4.05;3.75;;;;;;;;;;2066980;28;20035;-78
2024/01/26 07:03:05;;;;;;;2.80;2.70;;;;;;;;;;2071090;28;20025;-77
2024/01/26 07:04:24;;;;;;;3.60;2.88;;;;;;;;;;2066425;28;20041;-77
2024/01/26 07:05:43;;;;;;;3.13;2.92;;;;;;;;;;2063895;28;20042;-76
2024/01/26 07:07:02;;;;;;;3.13;2.50;;;;;;;;;;2070946;28;20417;-76
2024/01/26 07:08:21;;;;;;;3.10;2.40;;;;;;;;;;2066050;28;20416;-76
2024/01/26 07:09:40;;;;;;;2.40;2.20;;;;;;;;;;2069012;28;20107;-76
2024/01/26 07:10:59;;;;;;;2.47;2.28;;;;;;;;;;2076721;28;20034;-75
2024/01/26 07:12:18;;;;;;;4.03;2.40;;;;;;;;;;2068634;28;20468;-76
2024/01/26 07:13:37;;;;;;;3.63;2.45;;;;;;;;;;2072088;28;20038;-77
2024/01/26 07:14:56;;;;;;;3.30;2.33;;;;;;;;;;2075120;28;20507;-76
2024/01/26 07:16:15;;;;;;;2.90;2.70;;;;;;;;;;2077434;28;20045;-76
2024/01/26 07:17:34;;;;;;;2.53;2.42;;;;;;;;;;2076615;28;20117;-76
2024/01/26 07:18:53;;;;;;;2.90;2.70;;;;;;;;;;2076810;28;20396;-77
2024/01/26 07:20:12;;;;;;;2.65;2.45;;;;;;;;;;2076530;28;20033;-77
2024/01/26 07:21:31;;;;;;;2.78;2.58;;;;;;;;;;2075468;28;20038;-76
2024/01/26 07:22:50;;;;;;;1.95;1.85;;;;;;;;;;2076604;28;20030;-77
2024/01/26 07:24:09;;;;;;;2.33;2.15;;;;;;;;;;2076766;28;20029;-75
2024/01/26 07:25:30;;;;;;;2.10;2.00;;;;;;;;;;2075947;28;20639;-75
2024/01/26 07:26:49;;;;;;;5.18;3.08;;;;;;;;;;2076101;28;20514;-76
2024/01/26 07:28:08;;;;;;;2.65;2.45;;;;;;;;;;2076641;28;20038;-76
2024/01/26 07:29:27;;;;;;;2.90;2.60;;;;;;;;;;2076451;28;20018;-77
2024/01/26 07:30:46;;;;;;;3.15;2.70;;;;;;;;;;2075051;28;20042;-76
2024/01/26 07:32:05;;;;;;;1.88;1.77;;;;;;;;;;2074985;28;20396;-77
2024/01/26 07:33:24;;;;;;;2.10;2.00;;;;;;;;;;2075741;28;20025;-76
2024/01/26 07:34:43;;;;;;;2.20;2.10;;;;;;;;;;2076270;28;20041;-76
2024/01/26 07:36:02;;;;;;;3.95;2.60;;;;;;;;;;2076790;28;20038;-76
2024/01/26 07:37:21;;;;;;;2.42;2.25;;;;;;;;;;2067717;28;20034;-76
2024/01/26 07:38:40;;;;;;;2.60;2.50;;;;;;;;;;2073423;28;20112;-76
2024/01/26 07:40:01;;;;;;;2.90;2.67;;;;;;;;;;2075618;28;20484;-76
2024/01/26 07:41:20;;;;;;;3.05;2.85;;;;;;;;;;2073192;28;20117;-76
2024/01/26 07:42:39;;;;;;;3.15;2.95;;;;;;;;;;2066957;28;20085;-76
2024/01/26 07:43:59;;;;;;;3.60;3.25;;;;;;;;;;2074611;28;20034;-76
2024/01/26 07:45:18;;;;;;;4.00;3.25;;;;;;;;;;2076974;28;20029;-76
2024/01/26 07:46:41;;;;;;;5.13;3.05;;;;;;;;;;2067756;28;20045;-76
2024/01/26 07:48:00;;;;;;;3.55;2.58;;;;;;;;;;2073544;28;20416;-76
2024/01/26 07:49:19;;;;;;;2.80;2.60;;;;;;;;;;2068548;28;20548;-76
2024/01/26 07:50:39;;;;;;;2.50;2.40;;;;;;;;;;2072999;28;20022;-76
2024/01/26 07:51:58;;;;;;;1.85;1.75;;;;;;;;;;2075775;28;20112;-76
2024/01/26 07:53:17;;;;;;;2.13;2.03;;;;;;;;;;2075702;28;20060;-76